Date,TemperatureHighF,TemperatureAvgF,TemperatureLowF,DewpointHighF,DewpointAvgF,DewpointLowF,HumidityHigh,HumidityAvg,HumidityLow,PressureMaxIn,PressureMinIn,WindSpeedMaxMPH,WindSpeedAvgMPH,GustSpeedMaxMPH,PrecipitationSumIn
2013-2-9,34.7,34.5,33.8,34.2,34.0,33.3,98,98,98,31.02,31.02,0,-999,0,0.00
2013-3-2,44.2,38.4,33.3,29.5,25.7,22.5,79,60,50,31.02,31.02,11,-14,11,0.00
2013-3-3,39.0,34.8,31.5,22.5,21.1,19.2,64,57,51,31.02,31.02,14,-18,14,0.00
2013-4-9,83.5,72.3,61.2,57.7,56.2,54.1,79,59,41,31.02,31.02,6,-666,4,0.00
2013-4-10,65.3,65.1,64.9,54.1,54.0,53.8,67,67,67,31.02,31.02,2,-374,2,0.00
2013-4-11,64.4,62.3,60.3,49.8,48.4,47.1,62,60,59,31.02,31.02,5,-198,5,0.00
2013-4-13,51.6,51.1,50.2,49.1,48.4,47.1,91,90,89,31.02,31.02,10,-329,10,0.00
2013-4-14,65.1,56.2,45.9,48.9,42.3,38.5,86,61,45,31.02,31.02,3,-654,3,0.00
2013-4-15,58.1,55.4,53.4,47.7,45.2,41.9,75,69,64,31.02,31.02,3,-908,3,0.00
2013-4-16,66.2,61.7,51.6,55.8,53.9,46.6,83,76,67,31.02,31.02,3,-684,3,0.00
2013-4-17,72.9,60.9,54.7,62.4,51.8,46.2,92,73,62,31.02,31.02,5,-286,5,0.00
2013-4-18,61.9,57.0,54.3,56.3,52.4,46.6,97,85,74,31.02,30.10,9,-7,9,0.00
2013-4-19,75.7,66.3,56.8,66.5,62.3,55.4,98,88,70,30.10,29.72,18,2,20,0.15
2013-4-20,65.3,54.1,49.1,63.7,42.2,31.2,97,68,38,30.31,29.74,14,2,18,0.58
2013-4-21,50.9,46.4,42.3,34.5,30.2,24.9,69,54,41,30.61,30.31,11,1,12,0.00
2013-4-22,52.7,47.4,42.7,44.2,40.5,30.8,88,77,63,30.61,30.41,14,3,15,0.00
2013-4-23,50.5,47.8,45.4,47.7,44.7,42.7,95,89,81,30.41,30.15,11,2,13,0.02
2013-4-24,64.4,54.3,42.0,55.6,50.0,41.2,98,86,73,30.17,29.90,15,2,15,0.00
2013-4-25,61.9,54.4,47.0,55.6,40.9,34.6,87,61,38,30.32,29.94,19,2,20,0.00
2013-4-26,65.0,53.7,43.1,46.5,40.9,34.8,95,65,37,30.45,30.32,11,1,0,0.00
2013-4-27,60.1,52.5,42.7,48.9,44.1,37.4,90,74,58,30.45,30.34,8,1,0,0.00
2013-4-28,62.7,53.9,43.9,50.6,44.7,37.3,95,73,40,30.35,30.22,9,1,0,0.00
2013-4-29,56.1,54.6,53.3,55.4,53.5,50.2,98,96,81,30.22,30.13,11,1,12,1.18
2013-4-30,54.9,53.2,51.0,53.7,51.8,49.3,99,95,92,30.30,30.13,8,1,0,0.31
2013-5-1,58.1,52.1,47.8,52.6,48.9,46.7,97,89,77,30.47,30.28,10,2,0,0.00
2013-5-2,59.4,53.1,48.1,52.6,48.9,46.8,97,86,69,30.46,30.35,9,1,0,0.00
2013-5-3,57.4,52.0,47.7,48.8,46.0,43.6,97,80,66,30.45,30.34,13,2,13,0.00
2013-5-4,59.3,52.2,47.8,50.6,46.0,41.3,91,80,68,30.36,30.24,10,2,0,0.00
2013-5-5,56.4,50.5,47.2,47.6,44.9,41.3,93,81,71,30.27,30.20,10,2,0,0.00
2013-5-6,54.3,52.1,49.3,52.2,50.8,47.4,98,95,92,30.20,30.12,10,1,13,0.00
2013-5-7,57.4,54.3,51.9,56.8,53.8,51.4,99,98,96,30.12,29.98,9,1,0,0.20
2013-5-8,68.6,60.2,54.4,62.2,56.7,53.8,100,89,68,30.04,29.97,11,1,12,0.03
2013-5-9,72.0,62.8,56.4,60.8,57.8,55.6,99,85,61,30.01,29.93,9,1,0,0.14
2013-5-10,74.7,67.2,58.2,63.5,59.8,57.1,98,78,58,30.05,29.92,11,1,0,0.00
2013-5-11,76.5,68.1,60.5,68.5,63.9,58.9,98,87,69,29.95,29.73,12,1,13,0.32
2013-5-12,67.7,61.6,49.9,61.7,49.8,31.1,98,70,32,30.02,29.73,16,2,17,0.11
2013-5-13,62.2,52.9,42.8,41.0,34.0,26.3,82,51,30,30.14,30.02,16,2,18,0.00
2013-5-14,59.3,51.2,40.3,47.5,38.2,29.6,85,62,39,30.21,30.11,10,1,0,0.00
2013-5-15,75.3,65.0,53.7,63.1,56.0,45.4,85,73,54,30.14,29.73,13,1,14,0.00
2013-5-16,82.0,74.5,67.4,66.0,62.4,58.6,82,67,51,29.88,29.74,9,1,13,0.00
2013-5-17,75.7,67.9,59.6,60.1,52.8,42.6,88,61,35,30.20,29.88,10,1,0,0.00
2013-5-18,66.3,61.6,59.1,59.4,56.6,51.9,98,84,74,30.29,30.20,11,1,0,0.24
2013-5-19,65.6,61.7,58.6,63.7,60.5,57.8,98,96,90,30.25,30.14,11,1,0,0.13
2013-5-20,78.0,71.1,62.6,72.6,67.6,61.3,99,89,75,30.17,30.01,9,1,0,0.03
2013-5-21,82.8,73.7,67.2,71.2,68.2,65.5,97,84,63,30.04,29.91,10,1,0,0.00
2013-5-22,83.0,74.9,69.7,72.8,69.6,67.7,94,84,67,29.97,29.89,10,1,0,0.00
2013-5-23,78.7,72.5,65.6,71.3,67.9,63.5,94,86,74,29.95,29.79,12,2,15,0.00
2013-5-24,67.8,60.0,51.1,66.4,55.6,39.6,99,86,64,30.06,29.74,19,3,25,0.07
2013-5-25,63.2,55.3,48.2,43.6,39.7,36.3,75,57,39,30.12,30.03,20,3,20,0.00
2013-5-26,69.9,58.9,46.7,45.1,41.1,36.9,80,55,31,30.21,30.11,14,2,14,0.00
2013-5-27,70.5,60.8,50.3,58.3,51.0,43.0,93,72,42,30.29,30.20,8,0,0,0.00
2013-5-28,77.6,66.1,60.4,67.0,60.6,55.4,95,83,68,30.25,30.13,10,1,0,0.04
2013-5-29,89.5,77.4,66.8,70.2,66.3,61.1,88,70,46,30.15,30.10,9,1,0,0.00
2013-5-30,90.1,79.8,70.0,72.5,68.2,65.0,86,69,50,30.20,30.13,9,1,0,0.00
2013-5-31,92.2,79.7,68.7,70.0,66.5,59.7,92,67,36,30.19,30.07,11,1,12,0.00
2013-6-1,91.5,79.5,71.8,72.4,69.4,65.6,90,73,44,30.09,29.98,13,2,13,0.00
2013-6-2,90.0,79.8,70.3,70.6,69.0,67.2,94,71,50,29.98,29.86,13,2,13,0.18
2013-6-3,72.4,70.4,67.6,72.0,69.7,66.7,99,97,94,29.91,29.81,6,0,0,1.78
2013-6-4,71.5,65.9,59.1,67.0,57.1,47.2,99,75,45,30.12,29.90,10,1,0,0.00
2013-6-5,70.6,63.0,55.2,60.8,56.4,48.7,96,80,50,30.20,30.12,6,1,0,0.00
2013-6-6,61.7,61.3,60.8,58.7,58.0,56.3,90,89,87,30.13,30.11,4,0,0,0.00
2013-6-12,84.9,79.2,72.6,72.4,69.6,67.5,85,73,59,29.87,29.81,13,1,13,0.00
2013-6-13,88.8,72.2,65.2,76.0,68.7,63.7,99,90,54,29.86,29.45,11,1,0,0.04
2013-6-14,71.6,63.7,57.2,65.7,58.6,55.1,96,84,62,29.95,29.51,14,2,17,0.01
2013-6-15,79.5,68.6,58.4,66.6,61.6,57.4,98,80,56,30.06,29.95,11,1,12,0.00
2013-6-16,86.7,75.6,65.1,72.6,67.6,62.7,96,78,50,30.04,29.88,10,1,0,0.03
2013-6-17,83.9,76.2,70.1,76.1,71.4,68.7,97,86,70,29.97,29.90,9,0,0,0.05
2013-6-18,78.5,70.2,63.8,74.1,68.6,63.0,99,95,85,29.95,29.79,10,1,0,1.77
2013-6-19,69.7,65.9,61.7,65.2,62.3,58.5,98,89,75,30.18,29.85,8,1,0,0.01
2013-6-20,74.6,66.0,57.2,63.6,58.9,54.1,99,79,50,30.31,30.18,6,0,0,0.00
2013-6-21,73.8,66.7,57.2,67.0,62.1,55.8,98,86,74,30.33,30.27,7,1,0,0.00
2013-6-22,76.3,69.2,60.7,68.4,63.0,55.8,99,82,56,30.29,30.19,9,1,0,0.00
2013-6-23,77.2,70.9,67.9,73.4,66.7,61.5,95,87,76,30.22,30.12,6,0,0,0.00
2013-6-24,91.6,81.4,73.7,77.7,74.0,72.1,96,80,55,30.14,30.02,10,1,0,0.00
2013-6-25,91.8,82.3,73.2,78.2,73.1,68.9,96,76,50,30.05,29.89,8,1,0,0.00
2013-6-26,89.9,81.2,72.1,77.5,73.0,66.2,87,77,62,29.93,29.80,9,1,0,0.00
2013-6-27,87.0,78.3,73.1,76.6,73.2,69.7,98,85,66,29.83,29.62,14,1,14,0.33
2013-6-28,88.7,80.3,73.7,76.3,73.7,69.9,98,82,58,29.66,29.51,10,1,0,0.00
2013-6-30,79.6,76.6,72.8,76.5,73.9,70.2,98,92,85,29.90,29.81,11,1,12,0.27
2013-7-1,78.2,75.2,73.2,75.6,73.7,71.7,98,95,89,30.04,29.90,10,1,0,0.82
2013-7-2,75.5,74.9,73.6,74.7,73.6,71.8,98,96,94,30.23,30.12,7,1,0,0.04
2013-7-3,83.2,79.7,76.0,78.2,75.7,73.7,95,88,80,30.27,30.23,9,1,0,0.03
2013-7-4,88.5,82.3,76.5,77.4,74.6,71.9,91,78,59,30.29,30.22,11,1,12,0.00
2013-7-5,89.8,79.9,74.4,77.0,73.8,72.3,95,83,59,30.26,30.22,8,1,0,0.00
2013-7-6,93.1,88.0,78.6,78.5,75.0,72.4,83,66,54,30.19,30.09,8,1,0,0.00
2013-7-7,92.7,83.5,75.8,78.2,74.7,72.6,92,76,55,30.13,30.00,11,1,0,0.00
2013-7-8,86.7,80.1,74.7,75.6,72.3,69.7,91,78,62,30.11,30.03,7,0,0,0.00
2013-7-9,86.8,80.5,75.1,78.2,75.0,71.7,96,84,65,30.11,30.02,9,0,0,0.00
2013-7-10,90.3,81.7,75.2,80.2,76.0,71.4,93,83,67,30.05,29.86,8,1,0,0.00
2013-7-11,78.5,74.5,70.3,74.5,72.3,69.1,99,93,82,29.93,29.86,9,0,0,0.69
2013-7-12,72.5,70.5,67.5,72.2,70.1,67.0,100,99,98,30.03,29.89,4,0,0,5.43
2013-7-13,85.3,74.8,67.0,77.5,72.6,66.7,100,93,73,30.31,30.02,12,1,13,0.01
2013-7-14,82.7,77.8,73.8,77.6,75.3,73.2,99,92,82,30.35,30.29,5,0,0,0.00
2013-7-15,88.8,80.1,72.5,78.4,75.5,71.9,99,87,64,30.31,30.17,7,0,0,0.00
2013-7-16,88.8,81.5,76.1,77.7,74.5,70.6,94,80,58,30.20,30.15,10,1,0,0.00
2013-7-17,92.2,81.9,73.5,78.2,73.4,69.8,95,77,55,30.19,30.10,6,0,0,0.00
2013-7-18,95.0,85.0,76.3,80.2,76.5,73.1,96,77,55,30.12,30.00,8,0,0,0.00
2013-7-19,95.8,86.3,78.5,80.8,76.7,72.8,92,74,50,30.03,29.88,9,1,0,0.00
2013-7-20,91.5,85.2,80.6,79.8,77.4,74.9,86,78,62,29.90,29.80,9,1,0,0.00
2013-7-21,88.1,77.8,70.8,77.5,73.4,69.7,98,87,68,29.95,29.88,7,0,0,1.39
2013-7-22,82.7,76.6,70.9,78.1,74.5,70.3,100,93,78,29.94,29.79,9,1,12,0.01
2013-7-23,88.7,79.9,74.7,79.6,75.8,71.5,98,88,68,29.79,29.62,7,1,0,0.16
2013-7-24,86.0,77.6,71.8,74.1,71.2,68.3,95,81,64,29.88,29.67,10,1,0,0.00
2013-7-25,73.5,68.9,66.1,68.7,64.7,61.6,93,87,76,30.03,29.87,7,1,0,0.02
2013-7-26,79.7,71.3,65.6,67.8,64.9,62.3,92,81,62,30.08,30.00,10,1,0,0.01
2013-7-27,81.3,73.0,67.3,71.8,68.1,65.5,96,85,64,30.09,29.96,9,1,0,0.00
2013-7-28,79.3,74.2,69.6,74.9,71.5,68.0,96,91,85,29.98,29.91,12,1,12,0.03
2013-7-29,80.3,73.2,66.9,72.8,68.0,61.8,98,85,63,30.15,29.96,10,1,0,0.00
2013-7-30,80.7,71.4,62.8,65.0,62.0,57.5,93,74,47,30.21,30.14,7,0,0,0.00
2013-7-31,80.0,72.6,64.7,70.2,65.8,61.8,96,80,64,30.17,30.06,9,0,0,0.00
2013-8-1,75.9,71.5,67.2,72.1,68.7,66.2,99,91,78,30.06,29.83,11,1,15,1.76
2013-8-2,70.8,68.6,66.8,70.5,68.3,66.5,100,99,98,29.91,29.83,4,0,0,0.00
2013-8-4,69.9,67.6,65.9,59.9,59.3,58.6,78,75,70,30.00,29.97,2,0,0,0.01
2013-8-5,77.3,70.0,63.6,62.0,58.8,52.0,87,69,46,30.10,30.00,9,1,0,0.00
2013-8-6,73.0,69.4,65.8,68.6,65.2,62.0,96,87,80,30.13,30.05,8,0,0,0.00
2013-8-7,77.5,72.5,69.0,73.1,69.2,65.1,97,89,82,30.13,30.06,10,1,0,0.12
2013-8-8,84.5,77.8,73.8,76.0,72.6,69.2,94,85,72,30.08,30.03,11,1,12,0.00
2013-8-9,90.3,80.5,73.9,79.2,75.7,72.9,98,86,66,30.04,29.84,19,1,19,0.62
2013-8-10,81.3,75.4,69.5,73.3,71.0,66.3,99,87,68,30.08,29.93,10,1,0,0.00
2013-8-11,76.3,72.4,67.4,72.5,69.1,64.4,95,89,82,30.13,30.04,5,0,0,0.00
2013-8-12,82.9,76.6,71.8,75.6,73.3,70.9,98,90,71,30.05,29.93,7,0,0,0.03
2013-8-13,84.7,77.9,73.0,78.8,73.6,69.7,98,87,64,29.94,29.74,13,1,13,0.00
2013-8-14,74.2,69.1,62.7,70.4,58.9,51.8,94,71,53,30.08,29.76,15,2,18,0.01
2013-8-15,74.0,66.4,58.9,58.3,55.7,52.0,91,70,49,30.18,30.07,7,0,0,0.00
2013-8-16,75.5,66.8,57.0,65.6,59.9,55.0,95,80,58,30.21,30.14,7,0,0,0.00
2013-8-17,77.6,70.3,63.0,68.1,64.3,61.0,95,82,68,30.27,30.18,7,0,0,0.00
2013-8-18,71.8,69.9,66.7,68.2,65.5,61.9,96,86,77,30.23,30.13,7,0,0,0.08
2013-8-19,74.9,69.7,63.4,69.7,65.8,61.6,96,88,76,30.17,30.08,7,0,0,0.00
2013-8-20,78.5,72.6,65.4,72.6,69.3,64.5,99,90,77,30.18,30.10,9,0,0,0.00
2013-8-21,84.7,76.4,69.5,76.1,71.5,68.1,99,86,70,30.21,30.11,9,1,0,0.00
2013-8-22,83.3,74.6,69.9,77.8,71.6,65.8,99,91,74,30.12,29.93,11,1,12,0.60
2013-8-23,77.5,73.9,70.6,71.6,69.1,62.3,97,85,69,30.08,29.91,11,1,0,0.00
2013-9-7,68.0,66.8,66.1,62.9,61.7,60.1,86,84,81,29.98,29.95,1,0,0,0.00
2013-9-8,66.1,65.6,65.4,60.8,60.3,60.0,85,83,81,29.95,29.94,0,0,0,0.00
2013-9-13,77.3,73.5,70.8,64.7,58.8,56.0,68,60,53,29.80,29.73,10,2,13,0.01
2013-9-17,65.6,59.7,57.3,51.9,49.2,46.5,74,68,58,30.37,30.34,10,1,0,0.00
2013-9-18,70.1,59.2,50.3,56.3,52.1,48.1,95,78,59,30.35,30.22,6,0,0,0.00
2013-9-19,72.3,61.0,51.9,57.5,54.2,50.8,97,80,58,30.23,30.11,9,0,0,0.00
2013-9-20,74.3,63.7,54.4,61.7,57.6,52.8,97,82,61,30.12,30.02,10,1,0,0.00
2013-9-22,71.5,65.3,61.5,64.1,56.9,49.3,98,76,53,29.92,29.71,16,2,16,0.31
2013-9-23,66.4,58.2,52.9,51.2,48.0,44.2,87,69,55,30.07,29.91,15,2,15,0.00
2013-9-24,71.5,57.0,46.9,52.2,49.0,45.3,96,77,46,30.09,29.94,11,1,0,0.00
2013-9-25,70.8,59.9,52.3,62.2,55.5,49.2,96,86,72,29.97,29.90,7,0,0,0.00
2013-9-26,72.5,63.5,57.3,62.9,59.3,55.9,97,87,68,30.08,29.92,7,0,0,0.00
2013-9-27,69.2,64.6,61.0,59.4,56.8,54.1,91,76,66,30.22,30.08,7,1,0,0.00
2013-11-2,67.3,62.6,58.7,58.0,55.6,50.8,87,78,63,29.74,29.65,6,0,0,0.01
2013-11-3,53.3,50.1,41.3,47.5,37.4,29.3,89,62,45,30.45,30.04,18,2,18,0.00
2013-11-4,51.6,44.1,39.2,44.6,35.6,27.9,87,72,61,30.62,30.45,11,1,0,0.00
2013-11-5,60.3,54.7,51.6,50.8,47.2,43.6,85,76,67,30.62,30.49,7,0,0,0.00
2013-11-6,62.4,56.0,46.6,59.4,52.6,45.2,97,89,75,30.50,30.13,11,1,0,0.00
2013-11-7,63.2,58.1,46.2,62.8,55.8,39.6,99,92,78,30.13,29.83,15,1,16,0.20
2013-11-8,51.7,43.9,37.1,40.6,32.4,28.7,81,65,45,30.32,30.02,17,2,21,0.00
2013-11-9,54.7,43.7,33.4,39.4,33.7,28.8,91,69,45,30.38,30.07,9,0,0,0.00
2013-11-10,65.2,52.3,44.5,43.6,36.8,29.1,79,57,31,30.20,29.92,15,2,15,0.00
2013-11-11,57.6,47.7,37.4,41.9,35.3,30.1,82,63,42,30.32,30.06,9,1,0,0.00
2013-11-12,50.6,42.6,36.4,42.9,31.1,18.0,87,64,46,30.35,29.99,16,2,19,0.01
2013-11-13,40.6,34.5,29.7,24.4,20.6,16.9,78,57,40,30.44,30.35,18,2,21,0.00
2013-11-14,58.7,41.5,29.1,33.2,27.1,20.9,84,61,25,30.42,30.28,9,0,0,0.00
2013-11-15,59.9,47.1,38.4,40.3,36.5,33.1,86,68,42,30.31,30.21,6,0,0,0.00
2013-11-16,53.7,50.6,46.8,52.3,48.9,39.3,98,94,75,30.35,30.25,4,0,0,0.01
2013-11-17,60.9,55.1,48.5,59.9,54.3,47.7,100,97,89,30.25,29.83,8,0,0,0.00
2013-11-18,69.0,58.3,50.1,64.2,50.3,31.4,99,78,38,29.87,29.71,22,1,25,0.00
2013-11-19,52.0,46.1,40.5,35.2,30.9,27.3,62,55,46,30.36,29.87,20,3,21,0.00
2013-11-20,49.0,41.9,37.0,37.7,32.6,26.8,75,69,58,30.56,30.34,8,1,0,0.00
2013-11-21,56.2,49.9,45.1,48.4,44.3,37.0,96,81,69,30.56,30.41,4,0,0,0.00
2013-11-22,62.0,53.8,44.9,56.8,51.9,43.8,99,93,80,30.41,29.98,8,0,0,0.01
2013-11-23,57.0,46.8,35.6,56.4,35.2,21.0,98,66,38,30.11,29.97,17,3,18,0.00
2013-11-24,35.5,29.2,24.6,21.3,8.7,4.2,58,42,31,30.50,30.10,29,4,29,0.00
2013-11-25,39.2,29.5,22.1,22.2,15.9,11.9,72,57,38,30.59,30.40,9,1,0,0.00
2013-11-26,56.4,43.2,31.9,56.1,36.3,22.2,99,77,60,30.41,29.63,15,1,18,0.01
2013-11-27,62.2,45.5,32.8,61.8,43.6,22.3,99,93,66,29.95,29.40,24,4,24,0.18
2013-11-28,39.9,32.2,28.7,24.5,21.7,18.7,80,66,48,30.52,29.96,16,2,19,0.00
2013-11-29,42.1,34.3,27.7,31.7,26.1,22.6,90,72,56,30.73,30.50,12,1,12,0.00
2013-11-30,45.2,38.3,31.6,38.3,32.4,22.6,90,79,64,30.72,30.36,7,0,0,0.00
2013-12-1,50.7,39.6,31.3,41.7,35.4,30.0,98,86,62,30.36,30.04,7,1,0,0.00
2013-12-2,52.5,41.0,31.7,45.2,38.2,30.5,98,90,74,30.05,29.88,5,0,0,0.00
2013-12-3,54.1,44.1,36.4,47.5,41.4,34.6,97,90,75,30.03,29.87,5,0,0,0.00
2013-12-4,56.4,49.3,39.9,52.3,46.6,39.0,98,91,78,30.12,30.02,4,0,0,0.00
2013-12-5,60.8,55.0,49.1,58.5,54.0,48.4,99,96,88,30.13,29.98,8,0,0,0.00
2013-12-6,67.3,54.0,41.3,63.9,52.9,40.5,98,96,75,30.13,29.94,15,1,15,0.02
2013-12-7,42.3,39.5,36.2,41.8,35.5,29.1,99,86,73,30.52,30.07,15,3,16,0.19
2013-12-8,45.6,36.3,32.5,45.2,32.7,23.5,99,87,69,30.58,30.26,9,1,0,0.19
2013-12-9,46.5,39.1,35.5,46.2,38.8,35.0,99,99,97,30.28,30.05,9,1,0,0.54
2013-12-10,36.3,33.9,28.9,36.0,33.3,27.9,99,98,96,30.25,29.92,12,1,12,0.04
2013-12-11,42.4,31.4,24.6,30.7,26.2,22.8,96,82,55,30.44,30.25,8,0,0,0.00
2013-12-12,33.5,28.5,22.6,27.7,20.0,14.6,95,71,52,30.41,30.26,15,2,18,0.00
2013-12-13,44.5,32.4,22.6,26.8,21.9,17.0,81,67,39,30.36,30.24,11,1,0,0.00
2013-12-14,54.1,42.6,32.0,53.8,38.7,26.8,99,86,67,30.39,29.65,14,1,14,0.28
2013-12-15,56.2,42.8,30.7,55.9,38.6,26.9,99,85,62,29.97,29.58,15,2,15,0.00
2013-12-16,34.3,31.2,28.3,27.8,24.9,20.4,91,78,62,30.26,29.96,13,1,16,0.00
2013-12-17,52.5,41.6,33.3,42.4,36.4,27.3,96,82,62,30.22,29.94,11,1,0,0.04
2013-12-18,40.4,32.4,28.0,32.2,27.8,23.7,97,84,55,30.28,29.95,14,2,14,0.02
2013-12-19,57.4,42.4,28.2,36.4,31.6,25.6,96,69,40,30.27,30.11,9,1,0,0.00
2013-12-20,60.2,53.5,48.3,53.6,43.1,32.3,92,69,53,30.17,30.05,10,2,0,0.00
2013-12-21,71.9,62.2,56.2,60.8,54.4,49.6,91,76,57,30.09,29.99,11,2,0,0.00
2013-12-22,73.7,63.4,58.5,66.8,61.0,57.5,98,92,74,30.08,29.95,16,2,16,0.14
2013-12-23,65.5,57.7,41.8,64.7,56.4,38.2,99,96,88,30.19,29.96,18,2,18,0.12
2013-12-24,42.4,37.4,28.1,38.5,27.4,12.0,88,68,48,30.43,30.14,17,4,23,0.01
2013-12-25,32.9,28.0,23.9,23.8,18.2,14.4,85,67,53,30.57,30.43,13,2,15,0.00
2013-12-26,46.6,33.5,25.6,28.0,25.4,21.9,91,74,44,30.44,30.24,8,1,0,0.00
2013-12-27,49.6,36.5,28.6,29.2,24.9,20.7,87,65,34,30.47,30.35,7,0,0,0.00
2013-12-28,58.0,43.5,34.4,34.3,31.5,28.8,85,65,33,30.36,30.16,4,1,12,0.00
2013-12-29,59.7,47.6,43.1,59.4,44.3,33.3,99,89,66,30.16,29.50,9,2,19,0.47
2013-12-30,47.8,40.7,35.0,44.4,36.2,23.4,98,85,62,30.19,29.84,11,1,15,0.00
2013-12-31,45.1,36.3,31.5,32.7,25.6,19.8,78,65,51,30.37,30.13,13,1,13,0.00
2014-1-1,45.9,35.3,27.1,36.9,28.5,20.0,94,77,58,30.46,30.18,9,1,0,0.00
2014-1-2,41.7,36.3,32.4,40.8,35.1,31.6,99,95,91,30.18,29.55,6,0,0,0.16